sensor_id;sensor_type;location;lat;lon;timestamp;P1;durP1;ratioP1;P2;durP2;ratioP2
59907;SDS011;61804;54.926;73.496;2023-04-15T00:00:38;1.42;;;1.00;;
59907;SDS011;61804;54.926;73.496;2023-04-15T00:03:05;3.33;;;1.20;;
59907;SDS011;61804;54.926;73.496;2023-04-15T00:05:32;1.70;;;1.05;;
59907;SDS011;61804;54.926;73.496;2023-04-15T00:08:01;4.45;;;2.08;;
59907;SDS011;61804;54.926;73.496;2023-04-15T00:10:28;2.45;;;1.23;;
59907;SDS011;61804;54.926;73.496;2023-04-15T00:12:56;0.93;;;0.93;;
59907;SDS011;61804;54.926;73.496;2023-04-15T00:15:23;1.10;;;0.85;;
59907;SDS011;61804;54.926;73.496;2023-04-15T00:17:51;1.23;;;0.75;;
59907;SDS011;61804;54.926;73.496;2023-04-15T00:20:18;5.45;;;3.05;;
59907;SDS011;61804;54.926;73.496;2023-04-15T00:22:46;4.78;;;1.60;;
59907;SDS011;61804;54.926;73.496;2023-04-15T00:25:14;3.25;;;1.48;;
59907;SDS011;61804;54.926;73.496;2023-04-15T00:27:43;1.30;;;0.82;;
59907;SDS011;61804;54.926;73.496;2023-04-15T00:30:11;3.78;;;0.82;;
59907;SDS011;61804;54.926;73.496;2023-04-15T00:32:39;0.90;;;0.85;;
59907;SDS011;61804;54.926;73.496;2023-04-15T00:35:08;0.73;;;0.70;;
59907;SDS011;61804;54.926;73.496;2023-04-15T00:37:35;2.30;;;1.08;;
59907;SDS011;61804;54.926;73.496;2023-04-15T00:40:03;2.00;;;1.08;;
59907;SDS011;61804;54.926;73.496;2023-04-15T00:42:34;10.05;;;1.60;;
59907;SDS011;61804;54.926;73.496;2023-04-15T00:45:02;3.53;;;1.10;;
59907;SDS011;61804;54.926;73.496;2023-04-15T00:47:31;1.85;;;1.67;;
59907;SDS011;61804;54.926;73.496;2023-04-15T00:50:00;2.72;;;1.48;;
59907;SDS011;61804;54.926;73.496;2023-04-15T00:52:28;2.05;;;1.17;;
59907;SDS011;61804;54.926;73.496;2023-04-15T00:54:57;1.27;;;0.98;;
59907;SDS011;61804;54.926;73.496;2023-04-15T00:57:25;35.15;;;2.22;;
59907;SDS011;61804;54.926;73.496;2023-04-15T00:59:54;1.75;;;1.23;;
59907;SDS011;61804;54.926;73.496;2023-04-15T01:02:23;2.20;;;1.17;;
59907;SDS011;61804;54.926;73.496;2023-04-15T01:04:50;1.05;;;0.95;;
59907;SDS011;61804;54.926;73.496;2023-04-15T01:07:29;0.98;;;0.90;;
59907;SDS011;61804;54.926;73.496;2023-04-15T01:09:56;11.88;;;2.70;;
59907;SDS011;61804;54.926;73.496;2023-04-15T01:12:25;1.08;;;0.98;;
59907;SDS011;61804;54.926;73.496;2023-04-15T01:14:54;3.88;;;1.80;;
59907;SDS011;61804;54.926;73.496;2023-04-15T01:17:23;1.35;;;1.17;;
59907;SDS011;61804;54.926;73.496;2023-04-15T01:19:51;3.03;;;1.40;;
59907;SDS011;61804;54.926;73.496;2023-04-15T01:22:19;2.28;;;1.25;;
59907;SDS011;61804;54.926;73.496;2023-04-15T01:27:53;1.48;;;1.38;;
59907;SDS011;61804;54.926;73.496;2023-04-15T01:30:20;2.38;;;0.90;;
59907;SDS011;61804;54.926;73.496;2023-04-15T01:32:48;2.58;;;1.08;;
59907;SDS011;61804;54.926;73.496;2023-04-15T01:35:15;1.10;;;1.00;;
59907;SDS011;61804;54.926;73.496;2023-04-15T01:37:44;1.23;;;1.13;;
59907;SDS011;61804;54.926;73.496;2023-04-15T01:40:12;2.83;;;1.77;;
59907;SDS011;61804;54.926;73.496;2023-04-15T01:42:39;3.92;;;2.25;;
59907;SDS011;61804;54.926;73.496;2023-04-15T01:45:09;1.98;;;0.40;;
59907;SDS011;61804;54.926;73.496;2023-04-15T01:47:37;1.95;;;1.38;;
59907;SDS011;61804;54.926;73.496;2023-04-15T01:50:06;1.95;;;1.63;;
59907;SDS011;61804;54.926;73.496;2023-04-15T01:52:38;11.98;;;1.85;;
59907;SDS011;61804;54.926;73.496;2023-04-15T01:55:07;3.17;;;1.30;;
59907;SDS011;61804;54.926;73.496;2023-04-15T01:57:44;0.73;;;0.73;;
59907;SDS011;61804;54.926;73.496;2023-04-15T02:00:12;1.25;;;0.85;;
59907;SDS011;61804;54.926;73.496;2023-04-15T02:02:52;4.38;;;1.17;;
59907;SDS011;61804;54.926;73.496;2023-04-15T02:05:19;1.45;;;0.82;;
59907;SDS011;61804;54.926;73.496;2023-04-15T02:07:51;1.92;;;1.25;;
59907;SDS011;61804;54.926;73.496;2023-04-15T02:10:19;1.13;;;1.02;;
59907;SDS011;61804;54.926;73.496;2023-04-15T02:12:48;4.03;;;1.55;;
59907;SDS011;61804;54.926;73.496;2023-04-15T02:15:15;45.33;;;4.82;;
59907;SDS011;61804;54.926;73.496;2023-04-15T02:17:43;5.90;;;1.77;;
59907;SDS011;61804;54.926;73.496;2023-04-15T02:20:12;4.07;;;1.45;;
59907;SDS011;61804;54.926;73.496;2023-04-15T02:22:40;3.00;;;1.70;;
59907;SDS011;61804;54.926;73.496;2023-04-15T02:25:08;2.75;;;1.83;;
59907;SDS011;61804;54.926;73.496;2023-04-15T02:27:47;4.57;;;1.65;;
59907;SDS011;61804;54.926;73.496;2023-04-15T02:30:16;3.35;;;1.33;;
59907;SDS011;61804;54.926;73.496;2023-04-15T02:32:43;1.98;;;1.30;;
59907;SDS011;61804;54.926;73.496;2023-04-15T02:35:11;3.42;;;1.58;;
59907;SDS011;61804;54.926;73.496;2023-04-15T02:37:49;16.33;;;3.00;;
59907;SDS011;61804;54.926;73.496;2023-04-15T02:40:17;5.70;;;1.90;;
59907;SDS011;61804;54.926;73.496;2023-04-15T02:42:45;3.20;;;1.25;;
59907;SDS011;61804;54.926;73.496;2023-04-15T02:45:16;2.05;;;1.13;;
59907;SDS011;61804;54.926;73.496;2023-04-15T02:47:47;5.30;;;1.63;;
59907;SDS011;61804;54.926;73.496;2023-04-15T02:50:14;2.08;;;1.30;;
59907;SDS011;61804;54.926;73.496;2023-04-15T02:52:42;3.20;;;0.88;;
59907;SDS011;61804;54.926;73.496;2023-04-15T02:55:11;1.50;;;0.60;;
59907;SDS011;61804;54.926;73.496;2023-04-15T02:57:49;3.70;;;2.00;;
59907;SDS011;61804;54.926;73.496;2023-04-15T03:00:19;4.55;;;1.65;;
59907;SDS011;61804;54.926;73.496;2023-04-15T03:02:48;4.10;;;2.47;;
59907;SDS011;61804;54.926;73.496;2023-04-15T03:05:17;5.95;;;2.33;;
59907;SDS011;61804;54.926;73.496;2023-04-15T03:07:51;5.32;;;1.90;;
59907;SDS011;61804;54.926;73.496;2023-04-15T03:10:29;6.40;;;2.15;;
59907;SDS011;61804;54.926;73.496;2023-04-15T03:12:56;5.15;;;2.00;;
59907;SDS011;61804;54.926;73.496;2023-04-15T03:15:24;23.45;;;2.80;;
59907;SDS011;61804;54.926;73.496;2023-04-15T03:17:52;5.57;;;2.47;;
59907;SDS011;61804;54.926;73.496;2023-04-15T03:20:31;3.85;;;1.67;;
59907;SDS011;61804;54.926;73.496;2023-04-15T03:22:58;8.95;;;3.05;;
59907;SDS011;61804;54.926;73.496;2023-04-15T03:25:35;3.85;;;1.45;;
59907;SDS011;61804;54.926;73.496;2023-04-15T03:28:09;4.22;;;1.40;;
59907;SDS011;61804;54.926;73.496;2023-04-15T03:30:46;1.20;;;1.10;;
59907;SDS011;61804;54.926;73.496;2023-04-15T03:33:25;13.85;;;2.67;;
59907;SDS011;61804;54.926;73.496;2023-04-15T03:35:52;71.55;;;11.57;;
59907;SDS011;61804;54.926;73.496;2023-04-15T03:38:19;7.57;;;2.03;;
59907;SDS011;61804;54.926;73.496;2023-04-15T03:40:57;4.38;;;2.72;;
59907;SDS011;61804;54.926;73.496;2023-04-15T03:43:24;5.15;;;2.00;;
59907;SDS011;61804;54.926;73.496;2023-04-15T03:45:52;16.98;;;2.67;;
59907;SDS011;61804;54.926;73.496;2023-04-15T03:48:29;15.10;;;2.47;;
59907;SDS011;61804;54.926;73.496;2023-04-15T03:50:56;3.70;;;2.63;;
59907;SDS011;61804;54.926;73.496;2023-04-15T03:53:24;4.63;;;2.22;;
59907;SDS011;61804;54.926;73.496;2023-04-15T03:55:51;3.92;;;1.65;;
59907;SDS011;61804;54.926;73.496;2023-04-15T03:58:18;3.35;;;3.05;;
59907;SDS011;61804;54.926;73.496;2023-04-15T04:00:47;12.05;;;2.20;;
59907;SDS011;61804;54.926;73.496;2023-04-15T04:03:25;2.38;;;1.80;;
59907;SDS011;61804;54.926;73.496;2023-04-15T04:05:53;2.15;;;1.92;;
59907;SDS011;61804;54.926;73.496;2023-04-15T04:08:20;4.47;;;2.33;;
59907;SDS011;61804;54.926;73.496;2023-04-15T04:10:48;1.10;;;0.93;;
59907;SDS011;61804;54.926;73.496;2023-04-15T04:13:16;3.28;;;1.73;;
59907;SDS011;61804;54.926;73.496;2023-04-15T04:15:46;2.15;;;1.13;;
59907;SDS011;61804;54.926;73.496;2023-04-15T04:18:16;1.10;;;1.08;;
59907;SDS011;61804;54.926;73.496;2023-04-15T04:20:44;2.40;;;1.70;;
59907;SDS011;61804;54.926;73.496;2023-04-15T04:23:13;4.20;;;1.48;;
59907;SDS011;61804;54.926;73.496;2023-04-15T04:25:40;7.10;;;1.38;;
59907;SDS011;61804;54.926;73.496;2023-04-15T04:28:08;2.25;;;1.70;;
59907;SDS011;61804;54.926;73.496;2023-04-15T04:30:35;4.72;;;2.03;;
59907;SDS011;61804;54.926;73.496;2023-04-15T04:33:04;2.08;;;1.02;;
59907;SDS011;61804;54.926;73.496;2023-04-15T04:35:32;12.52;;;1.30;;
59907;SDS011;61804;54.926;73.496;2023-04-15T04:38:00;5.07;;;1.52;;
59907;SDS011;61804;54.926;73.496;2023-04-15T04:40:29;6.22;;;1.75;;
59907;SDS011;61804;54.926;73.496;2023-04-15T04:42:56;2.65;;;1.33;;
59907;SDS011;61804;54.926;73.496;2023-04-15T04:45:24;10.85;;;1.85;;
59907;SDS011;61804;54.926;73.496;2023-04-15T04:47:51;2.80;;;1.75;;
59907;SDS011;61804;54.926;73.496;2023-04-15T04:50:20;6.78;;;2.45;;
59907;SDS011;61804;54.926;73.496;2023-04-15T04:52:47;2.92;;;1.45;;
59907;SDS011;61804;54.926;73.496;2023-04-15T04:55:14;3.40;;;1.00;;
59907;SDS011;61804;54.926;73.496;2023-04-15T04:57:42;4.53;;;1.67;;
59907;SDS011;61804;54.926;73.496;2023-04-15T05:00:19;4.65;;;1.50;;
59907;SDS011;61804;54.926;73.496;2023-04-15T05:02:46;4.78;;;3.00;;
59907;SDS011;61804;54.926;73.496;2023-04-15T05:05:14;2.28;;;1.23;;
59907;SDS011;61804;54.926;73.496;2023-04-15T05:07:42;2.42;;;1.67;;
59907;SDS011;61804;54.926;73.496;2023-04-15T05:10:09;6.70;;;1.48;;
59907;SDS011;61804;54.926;73.496;2023-04-15T05:12:42;8.70;;;3.08;;
59907;SDS011;61804;54.926;73.496;2023-04-15T05:15:19;2.10;;;1.27;;
59907;SDS011;61804;54.926;73.496;2023-04-15T05:17:47;10.68;;;2.63;;
59907;SDS011;61804;54.926;73.496;2023-04-15T05:20:15;10.27;;;2.88;;
59907;SDS011;61804;54.926;73.496;2023-04-15T05:22:52;12.02;;;2.22;;
59907;SDS011;61804;54.926;73.496;2023-04-15T05:25:22;2.47;;;1.75;;
59907;SDS011;61804;54.926;73.496;2023-04-15T05:27:49;4.50;;;1.27;;
59907;SDS011;61804;54.926;73.496;2023-04-15T05:30:17;2.05;;;1.38;;
59907;SDS011;61804;54.926;73.496;2023-04-15T05:32:56;12.20;;;2.47;;
59907;SDS011;61804;54.926;73.496;2023-04-15T05:35:23;9.95;;;1.85;;
59907;SDS011;61804;54.926;73.496;2023-04-15T05:37:51;2.33;;;1.75;;
59907;SDS011;61804;54.926;73.496;2023-04-15T05:40:25;4.95;;;1.95;;
59907;SDS011;61804;54.926;73.496;2023-04-15T05:42:53;1.20;;;1.00;;
59907;SDS011;61804;54.926;73.496;2023-04-15T05:45:25;9.55;;;3.78;;
59907;SDS011;61804;54.926;73.496;2023-04-15T05:47:53;5.45;;;1.85;;
59907;SDS011;61804;54.926;73.496;2023-04-15T05:50:20;1.65;;;1.33;;
59907;SDS011;61804;54.926;73.496;2023-04-15T05:52:48;1.63;;;1.52;;
59907;SDS011;61804;54.926;73.496;2023-04-15T05:55:25;2.60;;;1.25;;
59907;SDS011;61804;54.926;73.496;2023-04-15T05:57:53;2.63;;;1.42;;
59907;SDS011;61804;54.926;73.496;2023-04-15T06:00:32;6.60;;;1.27;;
59907;SDS011;61804;54.926;73.496;2023-04-15T06:03:09;1.35;;;1.23;;
59907;SDS011;61804;54.926;73.496;2023-04-15T06:05:37;1.17;;;0.95;;
59907;SDS011;61804;54.926;73.496;2023-04-15T06:08:05;1.00;;;1.00;;
59907;SDS011;61804;54.926;73.496;2023-04-15T06:10:34;1.73;;;1.27;;
59907;SDS011;61804;54.926;73.496;2023-04-15T06:13:02;2.97;;;1.55;;
59907;SDS011;61804;54.926;73.496;2023-04-15T06:15:29;3.72;;;1.73;;
59907;SDS011;61804;54.926;73.496;2023-04-15T06:17:58;1.13;;;0.80;;
59907;SDS011;61804;54.926;73.496;2023-04-15T06:20:25;3.53;;;2.03;;
59907;SDS011;61804;54.926;73.496;2023-04-15T06:22:53;2.00;;;1.20;;
59907;SDS011;61804;54.926;73.496;2023-04-15T06:25:21;12.65;;;3.03;;
59907;SDS011;61804;54.926;73.496;2023-04-15T06:28:00;2.00;;;1.13;;
59907;SDS011;61804;54.926;73.496;2023-04-15T06:30:31;1.70;;;0.88;;
59907;SDS011;61804;54.926;73.496;2023-04-15T06:33:09;17.42;;;3.28;;
59907;SDS011;61804;54.926;73.496;2023-04-15T06:35:37;1.25;;;1.15;;
59907;SDS011;61804;54.926;73.496;2023-04-15T06:38:05;1.52;;;1.02;;
59907;SDS011;61804;54.926;73.496;2023-04-15T06:40:33;3.53;;;2.63;;
59907;SDS011;61804;54.926;73.496;2023-04-15T06:43:01;3.55;;;1.15;;
59907;SDS011;61804;54.926;73.496;2023-04-15T06:45:28;1.23;;;0.75;;
59907;SDS011;61804;54.926;73.496;2023-04-15T06:47:55;2.88;;;1.48;;
59907;SDS011;61804;54.926;73.496;2023-04-15T06:50:23;1.25;;;0.85;;
59907;SDS011;61804;54.926;73.496;2023-04-15T06:52:51;6.32;;;1.45;;
59907;SDS011;61804;54.926;73.496;2023-04-15T06:55:18;0.52;;;0.52;;
59907;SDS011;61804;54.926;73.496;2023-04-15T06:57:48;10.35;;;1.83;;
59907;SDS011;61804;54.926;73.496;2023-04-15T07:00:17;2.42;;;1.23;;
59907;SDS011;61804;54.926;73.496;2023-04-15T07:02:46;5.15;;;1.55;;
59907;SDS011;61804;54.926;73.496;2023-04-15T07:05:13;3.65;;;1.05;;
59907;SDS011;61804;54.926;73.496;2023-04-15T07:07:41;4.68;;;1.85;;
59907;SDS011;61804;54.926;73.496;2023-04-15T07:10:09;1.45;;;0.98;;
59907;SDS011;61804;54.926;73.496;2023-04-15T07:12:43;2.08;;;1.20;;
59907;SDS011;61804;54.926;73.496;2023-04-15T07:15:10;1.10;;;0.85;;
59907;SDS011;61804;54.926;73.496;2023-04-15T07:17:40;0.85;;;0.73;;
59907;SDS011;61804;54.926;73.496;2023-04-15T07:20:13;3.10;;;2.10;;
59907;SDS011;61804;54.926;73.496;2023-04-15T07:22:41;2.75;;;1.08;;
59907;SDS011;61804;54.926;73.496;2023-04-15T07:25:08;1.30;;;1.13;;
59907;SDS011;61804;54.926;73.496;2023-04-15T07:27:45;4.10;;;1.00;;
59907;SDS011;61804;54.926;73.496;2023-04-15T07:30:16;2.75;;;1.27;;
59907;SDS011;61804;54.926;73.496;2023-04-15T07:32:44;2.60;;;0.95;;
59907;SDS011;61804;54.926;73.496;2023-04-15T07:35:13;0.80;;;0.80;;
59907;SDS011;61804;54.926;73.496;2023-04-15T07:37:41;2.47;;;1.20;;
59907;SDS011;61804;54.926;73.496;2023-04-15T07:40:09;6.85;;;1.10;;
59907;SDS011;61804;54.926;73.496;2023-04-15T07:42:39;3.17;;;0.70;;
59907;SDS011;61804;54.926;73.496;2023-04-15T07:45:07;1.13;;;0.77;;
59907;SDS011;61804;54.926;73.496;2023-04-15T07:47:35;1.00;;;0.85;;
59907;SDS011;61804;54.926;73.496;2023-04-15T07:50:05;7.30;;;2.03;;
59907;SDS011;61804;54.926;73.496;2023-04-15T07:52:33;10.98;;;3.80;;
59907;SDS011;61804;54.926;73.496;2023-04-15T07:55:06;1.65;;;0.80;;
59907;SDS011;61804;54.926;73.496;2023-04-15T07:57:36;5.20;;;1.63;;
59907;SDS011;61804;54.926;73.496;2023-04-15T08:00:04;3.83;;;1.70;;
59907;SDS011;61804;54.926;73.496;2023-04-15T08:02:39;17.10;;;4.57;;
59907;SDS011;61804;54.926;73.496;2023-04-15T08:05:09;17.23;;;3.35;;
59907;SDS011;61804;54.926;73.496;2023-04-15T08:07:36;3.33;;;1.65;;
59907;SDS011;61804;54.926;73.496;2023-04-15T08:10:04;1.98;;;0.85;;
59907;SDS011;61804;54.926;73.496;2023-04-15T08:12:32;15.52;;;2.25;;
59907;SDS011;61804;54.926;73.496;2023-04-15T08:15:04;2.92;;;1.70;;
59907;SDS011;61804;54.926;73.496;2023-04-15T08:17:33;8.45;;;2.38;;
59907;SDS011;61804;54.926;73.496;2023-04-15T08:20:02;4.75;;;1.80;;
59907;SDS011;61804;54.926;73.496;2023-04-15T08:22:30;1.05;;;0.52;;
59907;SDS011;61804;54.926;73.496;2023-04-15T08:24:57;4.38;;;0.88;;
59907;SDS011;61804;54.926;73.496;2023-04-15T08:27:25;1.75;;;1.05;;
59907;SDS011;61804;54.926;73.496;2023-04-15T08:29:52;3.65;;;1.25;;
59907;SDS011;61804;54.926;73.496;2023-04-15T08:32:20;5.03;;;2.50;;
59907;SDS011;61804;54.926;73.496;2023-04-15T08:34:57;3.47;;;1.50;;
59907;SDS011;61804;54.926;73.496;2023-04-15T08:37:26;13.25;;;1.98;;
59907;SDS011;61804;54.926;73.496;2023-04-15T08:39:53;1.10;;;1.00;;
59907;SDS011;61804;54.926;73.496;2023-04-15T08:42:22;2.17;;;1.13;;
59907;SDS011;61804;54.926;73.496;2023-04-15T08:44:53;3.45;;;1.27;;
59907;SDS011;61804;54.926;73.496;2023-04-15T08:47:33;13.60;;;2.65;;
59907;SDS011;61804;54.926;73.496;2023-04-15T08:50:02;11.20;;;3.33;;
59907;SDS011;61804;54.926;73.496;2023-04-15T08:52:35;3.25;;;1.55;;
59907;SDS011;61804;54.926;73.496;2023-04-15T08:55:03;22.85;;;5.30;;
59907;SDS011;61804;54.926;73.496;2023-04-15T08:57:31;3.05;;;1.65;;
59907;SDS011;61804;54.926;73.496;2023-04-15T09:00:00;0.93;;;0.93;;
59907;SDS011;61804;54.926;73.496;2023-04-15T09:02:29;8.00;;;1.83;;
59907;SDS011;61804;54.926;73.496;2023-04-15T09:04:58;11.25;;;2.00;;
59907;SDS011;61804;54.926;73.496;2023-04-15T09:07:27;1.40;;;0.93;;
59907;SDS011;61804;54.926;73.496;2023-04-15T09:09:54;1.55;;;0.75;;
59907;SDS011;61804;54.926;73.496;2023-04-15T09:12:33;1.20;;;0.93;;
59907;SDS011;61804;54.926;73.496;2023-04-15T09:15:01;9.48;;;4.25;;
59907;SDS011;61804;54.926;73.496;2023-04-15T09:17:31;11.82;;;3.08;;
59907;SDS011;61804;54.926;73.496;2023-04-15T09:20:09;3.83;;;3.13;;
59907;SDS011;61804;54.926;73.496;2023-04-15T09:22:43;7.07;;;0.70;;
59907;SDS011;61804;54.926;73.496;2023-04-15T09:27:48;13.02;;;3.15;;
59907;SDS011;61804;54.926;73.496;2023-04-15T09:30:21;16.30;;;2.28;;
59907;SDS011;61804;54.926;73.496;2023-04-15T09:32:53;3.58;;;3.28;;
59907;SDS011;61804;54.926;73.496;2023-04-15T09:35:21;22.67;;;4.28;;
59907;SDS011;61804;54.926;73.496;2023-04-15T09:38:03;4.10;;;0.85;;
59907;SDS011;61804;54.926;73.496;2023-04-15T09:40:35;4.85;;;2.05;;
59907;SDS011;61804;54.926;73.496;2023-04-15T09:43:03;2.33;;;1.63;;
59907;SDS011;61804;54.926;73.496;2023-04-15T09:45:31;1.05;;;0.68;;
59907;SDS011;61804;54.926;73.496;2023-04-15T09:48:13;9.45;;;1.05;;
59907;SDS011;61804;54.926;73.496;2023-04-15T09:50:42;4.05;;;1.63;;
59907;SDS011;61804;54.926;73.496;2023-04-15T09:53:09;2.35;;;1.42;;
59907;SDS011;61804;54.926;73.496;2023-04-15T09:55:57;6.38;;;1.15;;
59907;SDS011;61804;54.926;73.496;2023-04-15T09:58:28;1.00;;;1.00;;
59907;SDS011;61804;54.926;73.496;2023-04-15T10:01:05;3.90;;;2.13;;
59907;SDS011;61804;54.926;73.496;2023-04-15T10:03:34;3.38;;;1.35;;
59907;SDS011;61804;54.926;73.496;2023-04-15T10:06:05;2.85;;;1.30;;
59907;SDS011;61804;54.926;73.496;2023-04-15T10:08:32;5.93;;;2.25;;
59907;SDS011;61804;54.926;73.496;2023-04-15T10:11:03;3.85;;;1.60;;
59907;SDS011;61804;54.926;73.496;2023-04-15T10:13:31;2.28;;;1.33;;
59907;SDS011;61804;54.926;73.496;2023-04-15T10:16:04;2.22;;;1.15;;
59907;SDS011;61804;54.926;73.496;2023-04-15T10:18:43;33.80;;;21.08;;
59907;SDS011;61804;54.926;73.496;2023-04-15T10:21:11;3.53;;;1.50;;
59907;SDS011;61804;54.926;73.496;2023-04-15T10:23:46;1.13;;;1.05;;
59907;SDS011;61804;54.926;73.496;2023-04-15T10:26:19;11.55;;;3.20;;
59907;SDS011;61804;54.926;73.496;2023-04-15T10:28:47;2.33;;;1.17;;
59907;SDS011;61804;54.926;73.496;2023-04-15T10:31:16;2.47;;;0.98;;
59907;SDS011;61804;54.926;73.496;2023-04-15T10:33:44;3.38;;;1.20;;
59907;SDS011;61804;54.926;73.496;2023-04-15T10:36:13;5.38;;;2.38;;
59907;SDS011;61804;54.926;73.496;2023-04-15T10:38:42;1.58;;;0.68;;
59907;SDS011;61804;54.926;73.496;2023-04-15T10:43:56;1.88;;;0.90;;
59907;SDS011;61804;54.926;73.496;2023-04-15T10:46:38;2.53;;;1.67;;
59907;SDS011;61804;54.926;73.496;2023-04-15T10:51:34;11.82;;;1.88;;
59907;SDS011;61804;54.926;73.496;2023-04-15T10:54:03;15.35;;;3.25;;
59907;SDS011;61804;54.926;73.496;2023-04-15T10:56:34;19.90;;;5.50;;
59907;SDS011;61804;54.926;73.496;2023-04-15T10:59:04;3.00;;;1.35;;
59907;SDS011;61804;54.926;73.496;2023-04-15T11:07:35;1.10;;;0.95;;
59907;SDS011;61804;54.926;73.496;2023-04-15T11:10:05;3.88;;;1.42;;
59907;SDS011;61804;54.926;73.496;2023-04-15T11:12:57;5.25;;;2.17;;
59907;SDS011;61804;54.926;73.496;2023-04-15T11:15:39;0.70;;;0.43;;
59907;SDS011;61804;54.926;73.496;2023-04-15T11:18:14;17.48;;;2.85;;
59907;SDS011;61804;54.926;73.496;2023-04-15T11:20:42;5.40;;;2.38;;
59907;SDS011;61804;54.926;73.496;2023-04-15T11:23:26;12.07;;;3.67;;
59907;SDS011;61804;54.926;73.496;2023-04-15T11:25:58;1.55;;;1.38;;
59907;SDS011;61804;54.926;73.496;2023-04-15T11:28:26;4.57;;;1.52;;
59907;SDS011;61804;54.926;73.496;2023-04-15T11:30:54;13.60;;;1.73;;
59907;SDS011;61804;54.926;73.496;2023-04-15T11:33:22;2.47;;;1.80;;
59907;SDS011;61804;54.926;73.496;2023-04-15T11:35:50;3.88;;;2.05;;
59907;SDS011;61804;54.926;73.496;2023-04-15T11:38:30;2.60;;;1.10;;
59907;SDS011;61804;54.926;73.496;2023-04-15T11:40:58;29.85;;;5.53;;
59907;SDS011;61804;54.926;73.496;2023-04-15T11:43:26;4.25;;;2.00;;
59907;SDS011;61804;54.926;73.496;2023-04-15T11:45:58;4.95;;;1.67;;
59907;SDS011;61804;54.926;73.496;2023-04-15T11:48:28;6.65;;;1.48;;
59907;SDS011;61804;54.926;73.496;2023-04-15T11:50:57;1.77;;;1.40;;
59907;SDS011;61804;54.926;73.496;2023-04-15T11:53:34;4.88;;;1.85;;
59907;SDS011;61804;54.926;73.496;2023-04-15T11:56:02;41.65;;;8.52;;
59907;SDS011;61804;54.926;73.496;2023-04-15T11:58:30;32.63;;;7.15;;
59907;SDS011;61804;54.926;73.496;2023-04-15T12:00:58;10.05;;;1.77;;
59907;SDS011;61804;54.926;73.496;2023-04-15T12:03:27;3.42;;;1.80;;
59907;SDS011;61804;54.926;73.496;2023-04-15T12:06:10;18.17;;;4.78;;
59907;SDS011;61804;54.926;73.496;2023-04-15T12:11:37;17.08;;;4.28;;
59907;SDS011;61804;54.926;73.496;2023-04-15T12:17:00;9.23;;;4.68;;
59907;SDS011;61804;54.926;73.496;2023-04-15T12:22:05;2.75;;;1.67;;
59907;SDS011;61804;54.926;73.496;2023-04-15T12:24:33;4.38;;;2.42;;
59907;SDS011;61804;54.926;73.496;2023-04-15T12:27:03;8.32;;;2.63;;
59907;SDS011;61804;54.926;73.496;2023-04-15T12:29:41;4.32;;;1.70;;
59907;SDS011;61804;54.926;73.496;2023-04-15T12:32:11;7.75;;;2.65;;
59907;SDS011;61804;54.926;73.496;2023-04-15T12:34:39;5.07;;;2.30;;
59907;SDS011;61804;54.926;73.496;2023-04-15T12:37:08;4.78;;;3.78;;
59907;SDS011;61804;54.926;73.496;2023-04-15T12:39:37;15.38;;;4.63;;
59907;SDS011;61804;54.926;73.496;2023-04-15T12:42:06;16.63;;;3.88;;
59907;SDS011;61804;54.926;73.496;2023-04-15T12:44:39;11.43;;;4.20;;
59907;SDS011;61804;54.926;73.496;2023-04-15T12:47:07;4.90;;;2.55;;
59907;SDS011;61804;54.926;73.496;2023-04-15T12:49:40;27.63;;;5.50;;
59907;SDS011;61804;54.926;73.496;2023-04-15T12:52:10;3.85;;;1.92;;
59907;SDS011;61804;54.926;73.496;2023-04-15T12:54:37;1.77;;;1.52;;
59907;SDS011;61804;54.926;73.496;2023-04-15T12:57:05;4.68;;;1.98;;
59907;SDS011;61804;54.926;73.496;2023-04-15T12:59:33;18.88;;;3.40;;
59907;SDS011;61804;54.926;73.496;2023-04-15T13:02:01;11.30;;;4.18;;
59907;SDS011;61804;54.926;73.496;2023-04-15T13:04:28;22.77;;;7.53;;
59907;SDS011;61804;54.926;73.496;2023-04-15T13:06:56;10.23;;;5.18;;
59907;SDS011;61804;54.926;73.496;2023-04-15T13:09:26;13.10;;;4.13;;
59907;SDS011;61804;54.926;73.496;2023-04-15T13:11:59;5.53;;;2.77;;
59907;SDS011;61804;54.926;73.496;2023-04-15T13:14:27;8.60;;;3.70;;
59907;SDS011;61804;54.926;73.496;2023-04-15T13:16:54;12.65;;;3.63;;
59907;SDS011;61804;54.926;73.496;2023-04-15T13:19:22;2.65;;;1.83;;
59907;SDS011;61804;54.926;73.496;2023-04-15T13:21:50;6.05;;;2.17;;
59907;SDS011;61804;54.926;73.496;2023-04-15T13:24:17;2.85;;;2.30;;
59907;SDS011;61804;54.926;73.496;2023-04-15T13:26:45;3.97;;;2.15;;
59907;SDS011;61804;54.926;73.496;2023-04-15T13:29:17;9.85;;;4.28;;
59907;SDS011;61804;54.926;73.496;2023-04-15T13:31:45;5.10;;;2.92;;
59907;SDS011;61804;54.926;73.496;2023-04-15T13:34:12;3.20;;;2.90;;
59907;SDS011;61804;54.926;73.496;2023-04-15T13:36:39;12.43;;;5.57;;
59907;SDS011;61804;54.926;73.496;2023-04-15T13:39:08;25.23;;;9.18;;
59907;SDS011;61804;54.926;73.496;2023-04-15T13:41:35;39.38;;;12.48;;
59907;SDS011;61804;54.926;73.496;2023-04-15T13:44:08;18.50;;;5.80;;
59907;SDS011;61804;54.926;73.496;2023-04-15T13:46:36;16.27;;;5.93;;
59907;SDS011;61804;54.926;73.496;2023-04-15T13:49:04;18.42;;;6.40;;
59907;SDS011;61804;54.926;73.496;2023-04-15T13:51:35;11.52;;;6.03;;
59907;SDS011;61804;54.926;73.496;2023-04-15T13:54:02;19.85;;;6.68;;
59907;SDS011;61804;54.926;73.496;2023-04-15T13:56:30;18.05;;;7.05;;
59907;SDS011;61804;54.926;73.496;2023-04-15T13:58:58;25.52;;;6.60;;
59907;SDS011;61804;54.926;73.496;2023-04-15T14:01:28;34.13;;;10.23;;
59907;SDS011;61804;54.926;73.496;2023-04-15T14:03:56;14.73;;;6.47;;
59907;SDS011;61804;54.926;73.496;2023-04-15T14:06:33;17.15;;;6.05;;
59907;SDS011;61804;54.926;73.496;2023-04-15T14:09:11;25.67;;;7.20;;
59907;SDS011;61804;54.926;73.496;2023-04-15T14:11:44;23.90;;;7.57;;
59907;SDS011;61804;54.926;73.496;2023-04-15T14:14:12;43.58;;;9.85;;
59907;SDS011;61804;54.926;73.496;2023-04-15T14:16:39;15.45;;;7.25;;
59907;SDS011;61804;54.926;73.496;2023-04-15T14:19:06;24.83;;;8.43;;
59907;SDS011;61804;54.926;73.496;2023-04-15T14:21:35;17.27;;;6.85;;
59907;SDS011;61804;54.926;73.496;2023-04-15T14:24:03;17.85;;;9.02;;
59907;SDS011;61804;54.926;73.496;2023-04-15T14:26:32;47.72;;;21.08;;
59907;SDS011;61804;54.926;73.496;2023-04-15T14:29:09;22.75;;;12.55;;
59907;SDS011;61804;54.926;73.496;2023-04-15T14:31:37;32.63;;;11.85;;
59907;SDS011;61804;54.926;73.496;2023-04-15T14:34:05;18.85;;;8.82;;
59907;SDS011;61804;54.926;73.496;2023-04-15T14:36:32;31.60;;;6.55;;
59907;SDS011;61804;54.926;73.496;2023-04-15T14:39:01;24.08;;;10.15;;
59907;SDS011;61804;54.926;73.496;2023-04-15T14:41:30;11.32;;;5.03;;
59907;SDS011;61804;54.926;73.496;2023-04-15T14:43:58;28.77;;;8.93;;
59907;SDS011;61804;54.926;73.496;2023-04-15T14:46:25;41.90;;;14.23;;
59907;SDS011;61804;54.926;73.496;2023-04-15T14:48:52;40.50;;;11.85;;
59907;SDS011;61804;54.926;73.496;2023-04-15T14:51:20;52.72;;;12.07;;
59907;SDS011;61804;54.926;73.496;2023-04-15T14:53:47;16.63;;;6.18;;
59907;SDS011;61804;54.926;73.496;2023-04-15T14:56:18;13.90;;;6.90;;
59907;SDS011;61804;54.926;73.496;2023-04-15T14:58:46;26.20;;;7.45;;
59907;SDS011;61804;54.926;73.496;2023-04-15T15:01:14;12.90;;;5.95;;
59907;SDS011;61804;54.926;73.496;2023-04-15T15:03:41;20.08;;;6.57;;
59907;SDS011;61804;54.926;73.496;2023-04-15T15:06:10;14.32;;;6.78;;
59907;SDS011;61804;54.926;73.496;2023-04-15T15:08:48;14.68;;;5.85;;
59907;SDS011;61804;54.926;73.496;2023-04-15T15:11:16;14.18;;;6.85;;